Etusivu
METAR-TAF:

METAR-TAF

Lentoasemat :

Remada, Tunisia

Leveyspiiri: 32-19N, Pituuspiiri: 010-24E, korkeus merenpinnasta: 300 m

Tämänhetkinen sää

Tämä raportti tehtiin 21 minuuttia sitten, kello 05.00 UTC
tyyntä
Lämpötila 10°C
Kosteus 82%
Ilmanpaine 1020 hPa

METAR: DTTD 050500Z AUTO 00000KT NCD 10/07 Q1020

Aika: 06:21 (05:21 UTC)


TAF: puuttuu

Säähavainnot ja -ennusteet yli 4000 lentoasemalta (METAR- ja TAF-raportit).

Käytössä olevat sääasemat on merkitty karttaan keltaisilla ja punaisilla pisteillä.

Aseta hiiri pisteen päälle nähdäksesi sääaseman nimen.

Klikkaa sitten nähdäksesi säähavainnot ja -ennusteet.

Kartan vaihtaminen: klikkaa mustalla rastilla varustettuja vihreitä pisteitä, niin voit zoomata sisään; viivalla varustettua vihreää pistettä, niin voit zoomata ulos tai vihreitä nuolia, niin pääset viereisille kartoille.


METAR-TAF: